19 Nov 2018 11:47 UTC 2018323+11:47 UTC

Overview Datums Bench Marks Data Query Site Visit Daily QC Messages Attributes

170: National Park Service - Baffin Bay

27° 17' 49" N   97° 24' 17" W
NPSBB
United States National Park Service United States National Park Service

Station Information

National Park Service - Baffin Bay
National Park Service - Baffin Bay
more pictures
 
Station Name:National Park Service - Baffin Bay
DNR ID:170
Location:27° 17' 49" N, 97° 24' 17" W

Water Level Forecasts

Latest Observations

Series Metric English Marine Observed at
Water Temperature 15.6 °C 60.1 °F 60.1 °F Nov 19 05:12 CST
00h30m ago
Salinity 30.200 psu 30.200 psu 30.200 psu Nov 19 05:12 CST
00h30m ago
pH 7.93 pH 7.93 pH 7.93 pH Nov 19 05:12 CST
00h30m ago
Turbidity 10 ntu 10 ntu 10 ntu Nov 19 05:12 CST
00h30m ago
Dissolved Oxygen 7.94 mg/L 0.000496 lb/ft3 0.000496 lb/ft3 Nov 19 05:12 CST
00h30m ago

Maps

National Park Service - Baffin Bay
All Stations in Area
Entire Network
 

Recent Observations

Date/Time Water
Temp (°F)
Sal (psu) pH (pH) Turb (ntu) DO (lb/ft3)
Nov 19 05:00 CST 60.1 30.200 7.92 9 0.000492
Nov 19 04:00 CST 60.4 30.300 7.90 9 0.000490
Nov 19 03:00 CST 60.6 30.400 7.88 9 0.000486
Nov 19 02:00 CST 61.0 30.400 7.90 12 0.000487
Nov 19 01:00 CST 61.3 30.400 7.94 15 0.000496
Nov 19 00:00 CST 61.5 30.400 7.94 23 0.000501
Nov 18 23:00 CST 61.7 30.500 7.93 30 0.000509
Nov 18 22:00 CST 61.5 30.500 7.89 35 0.000509
Nov 18 21:00 CST 62.2 30.500 7.94 30 0.000526
Nov 18 20:00 CST 62.6 30.400 7.98 26 0.000551
Nov 18 19:00 CST 62.4 30.300 7.98 19 0.000587
Nov 18 18:00 CST 62.8 30.300 7.98 15 0.000614
Nov 18 17:00 CST 62.2 30.400 7.99 6 0.000669
Nov 18 16:00 CST 62.8 30.400 7.98 0 0.000732
Nov 18 15:00 CST 62.8 30.300 7.96 -0 0.000700
Nov 18 14:00 CST 62.2 30.200 7.93 -0 0.000662
Nov 18 13:00 CST 60.4 30.500 7.91 2 0.000660
Nov 18 12:00 CST 59.7 30.700 7.89 2 0.000653
Nov 18 11:00 CST 59.4 30.600 7.89 2 0.000654
Nov 18 10:00 CST 59.2 30.600 7.87 2 0.000632
Nov 18 09:00 CST 58.8 30.600 7.84 1 0.000596
Nov 18 08:00 CST 58.6 30.600 7.84 4 0.000589
Nov 18 07:00 CST 59.0 30.600 7.82 4 0.000561
Nov 18 06:00 CST 59.4 30.600 7.82 0 0.000559
Nov 18 05:00 CST 59.2 30.500 7.83 1 0.000574

Historical Data Availability